Seattle, Washington
Traffic Map
Current Weather Conditions
Seattle, Washington
Broken Clouds
Broken Clouds
62°
Feels Like: 62°
Wind Chill: 62° Ceiling: 5000
Heat Index: 62° Visibility: 10mi
Dew Point: 51° Wind: 7mph
Humidity: 67% Direction: 200° (SSW)
Pressure: 29.87in Gusts: 0mph
Raw Report DataKBFI 200953Z 20006KT 10SM FEW024 BKN050 17/11 A2987 RMK AO2 SLP115 T01670106
Traffic Incident Summary
Active as of:
Severity:
Category:
InformationThere was an issue retrieving the traffic information for this location. Please try a different location or try again shortly.
Advertisements
Track Severe Weather on mobile